createdAt,value
2022-08-09T00:00:21.562Z,99.90
2022-08-09T00:02:51.665Z,99.90
2022-08-09T00:06:19.655Z,99.90
2022-08-09T00:08:11.102Z,99.90
2022-08-09T00:10:40.582Z,99.90
2022-08-09T00:13:17.005Z,99.90
2022-08-09T00:15:59.111Z,99.90
2022-08-09T00:18:30.004Z,99.90
2022-08-09T00:20:58.809Z,99.90
2022-08-09T00:23:55.641Z,99.90
2022-08-09T00:26:14.496Z,99.90
2022-08-09T00:28:41.562Z,99.90
2022-08-09T00:31:57.615Z,99.90
2022-08-09T00:34:08.704Z,99.90
2022-08-09T00:36:37.805Z,99.90
2022-08-09T00:39:06.948Z,99.90
2022-08-09T00:44:14.580Z,99.90
2022-08-09T00:44:31.819Z,99.90
2022-08-09T00:47:04.718Z,99.90
2022-08-09T00:49:36.780Z,99.90
2022-08-09T00:52:15.977Z,99.90
2022-08-09T00:54:45.514Z,99.90
2022-08-09T00:57:14.106Z,99.90
2022-08-09T01:00:05.197Z,99.90
2022-08-09T01:02:50.191Z,99.90
2022-08-09T01:05:51.428Z,99.90
2022-08-09T01:08:27.372Z,99.90
2022-08-09T01:10:58.440Z,99.90
2022-08-09T01:13:53.238Z,99.90
2022-08-09T01:16:26.345Z,99.90
2022-08-09T01:19:04.569Z,99.90
2022-08-09T01:22:07.000Z,99.90
2022-08-09T01:25:05.264Z,99.90
2022-08-09T01:27:37.178Z,99.90
2022-08-09T01:30:08.294Z,99.90
2022-08-09T01:32:57.557Z,99.90
2022-08-09T01:35:38.507Z,99.90
2022-08-09T01:38:14.755Z,99.90
2022-08-09T01:40:52.892Z,99.90
2022-08-09T01:43:41.811Z,99.90
2022-08-09T01:46:26.835Z,99.90
2022-08-09T01:49:00.254Z,99.90
2022-08-09T01:51:53.961Z,99.90
2022-08-09T01:54:33.251Z,99.90
2022-08-09T01:57:06.525Z,99.90
2022-08-09T01:59:50.928Z,99.90
2022-08-09T02:02:30.111Z,99.90
2022-08-09T02:05:11.857Z,99.90
2022-08-09T02:08:39.345Z,99.90
2022-08-09T02:10:51.202Z,99.90
2022-08-09T02:13:25.940Z,99.90
2022-08-09T02:16:04.811Z,99.90
2022-08-09T02:18:33.833Z,99.90
2022-08-09T02:21:10.343Z,99.90
2022-08-09T02:23:52.480Z,99.90
2022-08-09T02:26:24.841Z,99.90
2022-08-09T02:28:57.921Z,99.90
2022-08-09T02:31:35.431Z,99.90
2022-08-09T02:34:13.768Z,99.90
2022-08-09T02:37:01.414Z,99.90
2022-08-09T02:39:41.811Z,99.90
2022-08-09T02:42:16.660Z,99.90
2022-08-09T02:44:50.556Z,99.90
2022-08-09T02:47:21.175Z,99.90
2022-08-09T02:50:01.657Z,99.90
2022-08-09T02:52:40.861Z,99.90
2022-08-09T02:55:20.214Z,99.90
2022-08-09T02:58:00.476Z,99.90
2022-08-09T03:00:58.139Z,99.90
2022-08-09T03:04:12.613Z,99.90
2022-08-09T03:06:15.409Z,99.90
2022-08-09T03:08:45.589Z,99.90
2022-08-09T03:12:05.310Z,99.90
2022-08-09T03:14:06.772Z,99.90
2022-08-09T03:16:37.360Z,99.90
2022-08-09T03:19:08.959Z,99.90
2022-08-09T03:21:44.491Z,99.90
2022-08-09T03:24:31.610Z,99.90
2022-08-09T03:27:11.926Z,99.90
2022-08-09T03:29:57.382Z,99.90
2022-08-09T03:32:32.124Z,99.90
2022-08-09T03:35:00.283Z,99.90
2022-08-09T03:37:55.916Z,99.90
2022-08-09T03:40:18.200Z,99.90
2022-08-09T03:42:46.623Z,99.90
2022-08-09T03:45:15.503Z,99.90
2022-08-09T03:47:46.673Z,99.90
2022-08-09T03:50:18.860Z,99.90
2022-08-09T03:52:57.965Z,99.90
2022-08-09T03:55:27.169Z,99.90
2022-08-09T03:58:09.879Z,99.90
2022-08-09T04:00:45.456Z,99.90
2022-08-09T04:03:25.002Z,99.90
2022-08-09T04:06:00.191Z,99.90
2022-08-09T04:08:31.712Z,99.90
2022-08-09T04:11:00.480Z,99.90
2022-08-09T04:14:36.780Z,99.90
2022-08-09T04:16:19.538Z,99.90
2022-08-09T04:18:48.107Z,99.90
2022-08-09T04:21:18.216Z,99.90
2022-08-09T04:23:53.874Z,99.90
2022-08-09T04:26:23.179Z,99.90
2022-08-09T04:28:50.599Z,99.90
2022-08-09T04:31:17.427Z,99.90
2022-08-09T04:33:47.299Z,99.90
2022-08-09T04:36:25.090Z,99.90
2022-08-09T04:38:53.648Z,99.90
2022-08-09T04:41:23.756Z,99.90
2022-08-09T04:44:04.873Z,99.90
2022-08-09T04:46:57.715Z,99.90
2022-08-09T04:49:30.192Z,99.90
2022-08-09T04:52:07.400Z,99.90
2022-08-09T04:54:36.762Z,99.90
2022-08-09T07:17:25.827Z,99.90
2022-08-09T07:20:09.480Z,99.90
2022-08-09T07:22:42.195Z,99.90
2022-08-09T07:25:13.488Z,99.90
2022-08-09T07:27:53.614Z,99.90
2022-08-09T07:30:25.302Z,99.90
2022-08-09T07:32:52.696Z,99.90
2022-08-09T07:35:19.693Z,99.90
2022-08-09T07:37:48.093Z,99.90
2022-08-09T07:40:20.527Z,99.90
2022-08-09T07:42:56.323Z,99.90
2022-08-09T07:45:39.257Z,99.90
2022-08-09T07:48:28.634Z,99.90
2022-08-09T07:51:09.657Z,99.90
2022-08-09T07:54:07.781Z,99.90
2022-08-09T07:56:38.892Z,99.90
2022-08-09T07:59:25.745Z,99.90
2022-08-09T08:02:04.946Z,99.90
2022-08-09T08:04:33.210Z,99.90
2022-08-09T08:07:09.627Z,99.90
2022-08-09T08:10:07.584Z,99.90
2022-08-09T08:12:43.384Z,99.90
2022-08-09T08:15:24.127Z,99.90
2022-08-09T08:17:58.009Z,99.90
2022-08-09T08:20:30.389Z,99.90
2022-08-09T08:23:16.435Z,99.90
2022-08-09T08:25:46.159Z,99.90
2022-08-09T08:28:46.253Z,99.90
2022-08-09T08:32:02.204Z,99.90
2022-08-09T08:34:33.726Z,99.90
2022-08-09T08:37:11.458Z,99.40
2022-08-09T08:39:56.803Z,99.00
2022-08-09T08:42:25.123Z,98.20
2022-08-09T08:50:58.699Z,99.20
2022-08-09T08:53:30.002Z,99.10
2022-08-09T08:56:05.446Z,99.00
2022-08-09T08:58:35.919Z,97.80
2022-08-09T09:01:08.712Z,97.70
2022-08-09T09:03:49.426Z,97.90
2022-08-09T09:06:19.594Z,97.70
2022-08-09T09:08:52.448Z,97.20
2022-08-09T09:11:36.032Z,97.80
2022-08-09T09:14:32.258Z,97.60
2022-08-09T09:17:00.973Z,97.50
2022-08-09T09:19:40.763Z,97.00
2022-08-09T09:22:13.856Z,97.10
2022-08-09T09:24:43.325Z,96.50
2022-08-09T09:28:02.998Z,96.90
2022-08-09T09:30:27.454Z,97.20
2022-08-09T09:33:15.683Z,97.60
2022-08-09T09:36:00.847Z,97.90
2022-08-09T09:38:50.135Z,98.10
2022-08-09T09:41:23.024Z,97.40
2022-08-09T09:44:12.148Z,96.90
2022-08-09T09:46:42.134Z,96.60
2022-08-09T09:49:18.661Z,97.40
2022-08-09T09:52:05.633Z,97.80
2022-08-09T09:54:55.782Z,97.10
2022-08-09T09:58:02.645Z,97.40
2022-08-09T10:00:26.884Z,97.20
2022-08-09T10:02:53.977Z,96.90
2022-08-09T10:05:26.987Z,96.80
2022-08-09T10:08:27.892Z,96.60
2022-08-09T10:10:55.717Z,96.40
2022-08-09T10:13:23.218Z,95.90
2022-08-09T10:16:56.563Z,95.70
2022-08-09T10:18:59.969Z,95.80
2022-08-09T10:21:27.987Z,95.80
2022-08-09T10:23:56.982Z,95.90
2022-08-09T10:26:26.859Z,96.00
2022-08-09T10:29:20.984Z,95.60
2022-08-09T10:34:33.186Z,95.30
2022-08-09T10:37:01.821Z,95.70
2022-08-09T10:39:30.042Z,95.40
2022-08-09T10:42:08.167Z,94.60
2022-08-09T14:16:18.674Z,61.40
2022-08-09T14:18:50.287Z,62.30
2022-08-09T14:21:20.720Z,61.70
2022-08-09T14:23:55.201Z,59.90
2022-08-09T14:26:31.710Z,61.40
2022-08-09T14:29:01.277Z,61.00
2022-08-09T14:31:36.277Z,59.90
2022-08-09T14:37:08.115Z,58.30
2022-08-09T14:39:47.113Z,60.00
2022-08-09T14:42:28.900Z,60.00
2022-08-09T14:45:00.062Z,58.80
2022-08-09T14:47:45.303Z,58.20
2022-08-09T14:50:16.118Z,58.30
2022-08-09T14:52:43.409Z,59.60
2022-08-09T14:55:20.325Z,58.30
2022-08-09T14:57:48.795Z,58.00
2022-08-09T15:00:16.616Z,58.60
2022-08-09T15:02:47.783Z,57.00
2022-08-09T15:05:18.820Z,57.00
2022-08-09T15:07:56.641Z,56.90
2022-08-09T15:10:25.537Z,57.70
2022-08-09T15:12:56.980Z,58.50
2022-08-09T15:15:28.483Z,59.00
2022-08-09T15:17:56.344Z,58.90
2022-08-09T15:21:57.003Z,59.00
2022-08-09T15:24:00.873Z,58.30
2022-08-09T15:25:58.696Z,58.20
2022-08-09T15:28:28.321Z,58.20
2022-08-09T15:31:08.740Z,57.50
2022-08-09T15:34:33.150Z,57.20
2022-08-09T15:36:28.765Z,57.40
2022-08-09T15:39:00.201Z,57.40
2022-08-09T15:41:31.672Z,57.00
2022-08-09T15:44:02.692Z,57.30
2022-08-09T15:46:33.268Z,57.50
2022-08-09T15:49:22.501Z,57.30
2022-08-09T15:52:04.602Z,57.00
2022-08-09T15:54:49.053Z,57.30
2022-08-09T15:57:35.532Z,58.20
2022-08-09T16:00:29.338Z,58.90
2022-08-09T16:02:58.238Z,59.90
2022-08-09T16:05:47.588Z,60.80
2022-08-09T16:08:29.969Z,61.80
2022-08-09T16:10:59.849Z,62.60
2022-08-09T16:14:02.582Z,63.10
2022-08-09T16:16:17.512Z,63.40
2022-08-09T16:18:45.718Z,63.90
2022-08-09T16:21:17.587Z,64.80
2022-08-09T16:23:58.911Z,65.30
2022-08-09T16:26:35.126Z,66.20
2022-08-09T16:29:11.852Z,66.80
2022-08-09T16:32:18.561Z,66.60
2022-08-09T16:34:28.828Z,67.60
2022-08-09T16:36:56.682Z,68.20
2022-08-09T16:39:25.917Z,69.30
2022-08-09T16:42:04.023Z,69.20
2022-08-09T16:44:32.377Z,70.10
2022-08-09T16:47:01.969Z,70.20
2022-08-09T16:50:29.687Z,70.40
2022-08-09T16:52:18.221Z,70.80
2022-08-09T16:54:46.127Z,71.10
2022-08-09T16:57:14.624Z,71.20
2022-08-09T16:59:43.857Z,71.50
2022-08-09T17:02:17.616Z,71.80
2022-08-09T17:04:45.819Z,72.10
2022-08-09T17:08:43.949Z,72.30
2022-08-09T17:10:02.196Z,72.50
2022-08-09T17:12:31.296Z,72.60
2022-08-09T17:14:58.550Z,72.30
2022-08-09T17:17:27.128Z,73.00
2022-08-09T17:20:33.218Z,73.50
2022-08-09T17:22:50.110Z,73.10
2022-08-09T17:25:19.741Z,73.00
2022-08-09T17:27:49.079Z,73.00
2022-08-09T17:30:22.192Z,73.50
2022-08-09T17:32:53.319Z,73.70
2022-08-09T17:35:20.205Z,73.90
2022-08-09T17:38:02.361Z,74.10
2022-08-09T17:40:36.623Z,74.10
2022-08-09T17:43:33.054Z,74.40
2022-08-09T17:46:03.904Z,74.60
2022-08-09T17:48:38.591Z,74.30
2022-08-09T17:51:18.603Z,74.80
2022-08-09T17:53:52.376Z,74.70
2022-08-09T17:56:27.604Z,75.20
2022-08-09T17:58:56.990Z,75.00
2022-08-09T18:01:24.219Z,75.00
2022-08-09T18:03:54.335Z,75.10
2022-08-09T18:06:31.886Z,75.40
2022-08-09T18:09:05.511Z,75.40
2022-08-09T18:12:05.205Z,75.30
2022-08-09T18:14:22.547Z,75.80
2022-08-09T18:16:50.946Z,75.80
2022-08-09T18:20:54.928Z,75.80
2022-08-09T18:22:13.205Z,75.80
2022-08-09T18:24:44.444Z,76.00
2022-08-09T18:27:18.835Z,76.50
2022-08-09T18:30:42.019Z,76.70
2022-08-09T18:32:54.566Z,76.70
2022-08-09T18:35:58.082Z,76.80
2022-08-09T18:38:11.787Z,76.60
2022-08-09T18:40:45.290Z,76.70
2022-08-09T18:43:12.842Z,76.90
2022-08-09T18:46:47.971Z,76.90
2022-08-09T18:48:32.785Z,77.10
2022-08-09T18:51:00.868Z,77.60
2022-08-09T18:53:56.223Z,77.90
2022-08-09T18:56:16.673Z,77.90
2022-08-09T18:58:44.613Z,78.50
2022-08-09T19:01:12.072Z,78.30
2022-08-09T19:04:00.925Z,78.40
2022-08-09T19:06:28.954Z,78.80
2022-08-09T19:09:02.910Z,78.80
2022-08-09T19:11:37.914Z,79.40
2022-08-09T19:14:07.012Z,79.40
2022-08-09T19:16:38.046Z,79.80
2022-08-09T19:19:26.179Z,79.90
2022-08-09T19:22:06.204Z,79.80
2022-08-09T19:25:08.998Z,80.00
2022-08-09T19:27:22.298Z,80.50
2022-08-09T19:30:22.307Z,80.90
2022-08-09T19:32:38.634Z,81.20
2022-08-09T19:35:06.162Z,81.80
2022-08-09T19:37:54.467Z,81.50
2022-08-09T19:40:23.487Z,81.70
2022-08-09T19:43:00.315Z,81.60
2022-08-09T19:45:28.115Z,82.30
2022-08-09T19:48:07.718Z,82.30
2022-08-09T19:50:50.717Z,82.50
2022-08-09T19:53:20.943Z,82.80
2022-08-09T19:56:06.311Z,83.10
2022-08-09T19:58:34.397Z,83.70
2022-08-09T20:01:01.588Z,83.70
2022-08-09T20:04:16.841Z,83.10
2022-08-09T20:06:23.641Z,83.20
2022-08-09T20:08:57.634Z,83.50
2022-08-09T20:11:33.734Z,83.90
2022-08-09T20:14:15.248Z,84.00
2022-08-09T20:16:53.800Z,84.40
2022-08-09T20:19:47.880Z,84.40
2022-08-09T20:22:14.324Z,84.80
2022-08-09T20:24:53.882Z,84.60
2022-08-09T20:27:21.668Z,84.80
2022-08-09T20:29:49.046Z,85.20
2022-08-09T20:32:33.454Z,85.60
2022-08-09T20:35:01.512Z,85.60
2022-08-09T20:38:19.386Z,85.50
2022-08-09T20:40:24.762Z,86.00
2022-08-09T20:42:59.824Z,85.80
2022-08-09T20:45:59.104Z,86.10
2022-08-09T20:48:23.556Z,86.40
2022-08-09T20:50:58.322Z,87.10
2022-08-09T20:53:37.652Z,86.50
2022-08-09T20:56:20.494Z,86.80
2022-08-09T20:58:49.493Z,86.90
2022-08-09T21:01:35.094Z,87.30
2022-08-09T21:05:49.604Z,87.50
2022-08-09T21:06:51.117Z,87.50
2022-08-09T21:09:38.135Z,87.80
2022-08-09T21:14:40.638Z,88.30
2022-08-09T21:18:11.181Z,88.50
2022-08-09T21:20:17.938Z,88.70
2022-08-09T21:22:46.822Z,88.70
2022-08-09T21:25:37.938Z,89.00
2022-08-09T21:28:05.842Z,89.10
2022-08-09T21:30:34.800Z,89.50
2022-08-09T21:33:08.060Z,89.80
2022-08-09T21:35:39.486Z,89.80
2022-08-09T21:38:09.429Z,90.20
2022-08-09T21:40:38.068Z,90.20
2022-08-09T21:43:06.252Z,90.20
2022-08-09T21:45:39.162Z,90.40
2022-08-09T21:48:07.347Z,90.50
2022-08-09T21:50:38.725Z,90.60
2022-08-09T21:53:19.981Z,90.60
2022-08-09T21:55:54.820Z,90.80
2022-08-09T21:58:30.965Z,91.00
2022-08-09T22:00:58.259Z,91.00
2022-08-09T22:03:25.750Z,91.10
2022-08-09T22:05:54.143Z,91.30
2022-08-09T22:08:24.537Z,91.50
2022-08-09T22:11:04.873Z,91.50
2022-08-09T22:13:43.375Z,91.50
2022-08-09T22:16:11.997Z,91.70
2022-08-09T22:18:53.702Z,91.80
2022-08-09T22:21:44.844Z,91.80
2022-08-09T22:24:17.328Z,91.90
2022-08-09T22:26:51.840Z,92.10
2022-08-09T22:29:24.131Z,92.10
2022-08-09T22:31:56.977Z,92.30
2022-08-09T22:34:26.200Z,92.60
2022-08-09T22:36:55.163Z,92.80
2022-08-09T22:39:58.238Z,92.90
2022-08-09T22:42:21.292Z,92.90
2022-08-09T22:45:00.178Z,93.10
2022-08-09T22:48:11.735Z,93.20
2022-08-09T22:50:27.235Z,93.30
2022-08-09T22:52:54.811Z,93.50
2022-08-09T22:55:39.448Z,93.50
2022-08-09T22:58:30.669Z,93.80
2022-08-09T23:01:00.745Z,93.90
2022-08-09T23:04:02.405Z,94.30
2022-08-09T23:06:34.751Z,94.50
2022-08-09T23:09:07.199Z,94.60
2022-08-09T23:11:34.644Z,94.70
2022-08-09T23:14:03.769Z,94.70
2022-08-09T23:16:31.563Z,94.90
2022-08-09T23:18:58.546Z,95.10
2022-08-09T23:21:30.060Z,95.10
2022-08-09T23:24:05.261Z,95.40
2022-08-09T23:26:37.433Z,95.50
2022-08-09T23:29:06.340Z,95.80
2022-08-09T23:31:34.240Z,95.80
2022-08-09T23:34:03.723Z,95.90
2022-08-09T23:36:31.418Z,96.20
2022-08-09T23:38:58.336Z,96.30
2022-08-09T23:41:28.627Z,96.50
2022-08-09T23:43:57.161Z,96.90
2022-08-09T23:46:23.960Z,96.90
2022-08-09T23:48:50.779Z,97.30
2022-08-09T23:51:17.682Z,97.40
2022-08-09T23:53:44.729Z,97.50
2022-08-09T23:56:14.240Z,97.60
2022-08-09T23:58:41.509Z,98.00
